Tributaries of Vltava river

river Berounka - water gauge Beroun

Date and time (UTC) H (cm) Q (m³/s)
22. 4. 2024 04:30 127 42.5
22. 4. 2024 04:00 127 43
22. 4. 2024 03:00 127 43
22. 4. 2024 02:00 126 42
22. 4. 2024 01:00 125 41
22. 4. 2024 00:00 124 40
21. 4. 2024 23:00 124 40
21. 4. 2024 22:00 124 40
21. 4. 2024 21:00 123 39
21. 4. 2024 20:00 122 38
21. 4. 2024 19:00 122 38
21. 4. 2024 18:00 121 38
21. 4. 2024 17:00 120 37
21. 4. 2024 16:00 119 36

H - water level, Q - discharge

river Sázava - water gauge Nespeky

Date and time (UTC) H (cm) Q (m³/s)
22. 4. 2024 04:30 73 12.8
22. 4. 2024 04:00 73 13
22. 4. 2024 03:00 73 13
22. 4. 2024 02:00 73 13
22. 4. 2024 01:00 73 13
22. 4. 2024 00:00 73 13
21. 4. 2024 23:00 73 13
21. 4. 2024 22:00 73 13
21. 4. 2024 21:00 73 13
21. 4. 2024 20:00 73 13
21. 4. 2024 19:00 73 13
21. 4. 2024 18:00 74 13
21. 4. 2024 17:00 74 13
21. 4. 2024 16:00 74 13

H - water level, Q - discharge

river Otava - water gauge Písek

Date and time (UTC) H (cm) Q (m³/s)
22. 4. 2024 04:30 87 21.4
22. 4. 2024 04:00 87 21
22. 4. 2024 03:00 87 21
22. 4. 2024 02:00 87 21
22. 4. 2024 01:00 88 22
22. 4. 2024 00:00 88 22
21. 4. 2024 23:00 89 22
21. 4. 2024 22:00 89 22
21. 4. 2024 21:00 90 23
21. 4. 2024 20:00 92 23
21. 4. 2024 19:00 91 23
21. 4. 2024 18:00 92 23
21. 4. 2024 17:00 93 24
21. 4. 2024 16:00 94 24

H - water level, Q - discharge

river Lužnice - water gauge Bechyně

Date and time (UTC) H (cm) Q (m³/s)
22. 4. 2024 04:20 105 7.8
22. 4. 2024 04:00 105 8
22. 4. 2024 03:00 105 8
22. 4. 2024 02:00 106 8
22. 4. 2024 01:00 106 8
22. 4. 2024 00:00 106 8
21. 4. 2024 23:00 106 8
21. 4. 2024 22:00 106 8
21. 4. 2024 21:00 105 8
21. 4. 2024 20:00 105 8
21. 4. 2024 19:00 102 7
21. 4. 2024 18:00 87 4
21. 4. 2024 17:00 104 8
21. 4. 2024 16:00 104 7

H - water level, Q - discharge
Source data
Labe Basin Vltava Basin Povodí Moravy ČHMÚ
Po vodě ekologicky, levně a v pohodě
backgroung on backgroung off